createdAt,value
2018-12-14T00:01:02.894Z,15.03
2018-12-14T00:03:31.317Z,14.83
2018-12-14T00:05:59.696Z,13.23
2018-12-14T00:08:28.142Z,12.87
2018-12-14T00:10:56.600Z,14.30
2018-12-14T00:13:24.948Z,14.60
2018-12-14T00:15:53.337Z,13.77
2018-12-14T00:18:21.712Z,15.27
2018-12-14T00:20:50.125Z,12.67
2018-12-14T00:23:18.518Z,13.73
2018-12-14T00:25:47.216Z,13.07
2018-12-14T00:28:15.651Z,12.47
2018-12-14T00:30:44.154Z,11.53
2018-12-14T00:33:12.523Z,10.57
2018-12-14T00:35:41.360Z,13.57
2018-12-14T00:38:09.781Z,13.17
2018-12-14T00:40:38.171Z,12.17
2018-12-14T00:43:06.516Z,12.27
2018-12-14T00:45:34.918Z,11.67
2018-12-14T00:48:03.293Z,13.00
2018-12-14T00:50:31.702Z,12.57
2018-12-14T00:53:00.192Z,11.30
2018-12-14T00:55:28.643Z,11.93
2018-12-14T00:57:57.112Z,12.13
2018-12-14T01:00:25.528Z,11.10
2018-12-14T01:02:53.921Z,11.30
2018-12-14T01:05:22.305Z,10.97
2018-12-14T01:07:50.789Z,12.40
2018-12-14T01:10:19.090Z,11.97
2018-12-14T01:12:48.363Z,10.83
2018-12-14T01:15:16.775Z,10.50
2018-12-14T01:17:45.128Z,12.50
2018-12-14T01:20:14.107Z,13.00
2018-12-14T01:22:42.518Z,10.87
2018-12-14T01:25:10.973Z,13.17
2018-12-14T01:27:39.403Z,10.73
2018-12-14T01:30:07.815Z,13.13
2018-12-14T01:32:36.213Z,11.40
2018-12-14T01:35:06.330Z,12.50
2018-12-14T01:37:34.835Z,11.30
2018-12-14T01:40:05.674Z,10.90
2018-12-14T01:42:34.156Z,11.83
2018-12-14T01:45:03.131Z,11.80
2018-12-14T01:47:31.790Z,11.47
2018-12-14T01:50:00.300Z,10.60
2018-12-14T01:52:28.881Z,12.53
2018-12-14T01:54:57.323Z,11.50
2018-12-14T01:57:25.861Z,11.07
2018-12-14T01:59:54.263Z,12.20
2018-12-14T02:02:23.423Z,12.73
2018-12-14T02:04:51.802Z,11.03
2018-12-14T02:07:20.197Z,12.80
2018-12-14T02:09:48.633Z,11.03
2018-12-14T02:12:17.147Z,11.50
2018-12-14T02:14:45.626Z,12.07
2018-12-14T02:17:14.185Z,10.20
2018-12-14T02:19:42.542Z,12.27
2018-12-14T02:22:11.192Z,11.60
2018-12-14T02:24:39.843Z,13.10
2018-12-14T02:27:08.501Z,12.10
2018-12-14T02:29:37.117Z,10.50
2018-12-14T02:32:05.957Z,11.30
2018-12-14T02:34:34.481Z,10.23
2018-12-14T02:37:02.939Z,13.03
2018-12-14T02:39:31.372Z,12.60
2018-12-14T02:41:59.812Z,11.03
2018-12-14T02:44:28.194Z,11.20
2018-12-14T02:46:56.599Z,12.53
2018-12-14T02:49:25.085Z,11.27
2018-12-14T02:51:53.584Z,12.43
2018-12-14T02:54:21.990Z,12.10
2018-12-14T02:56:50.403Z,12.73
2018-12-14T02:59:18.790Z,13.10
2018-12-14T03:01:47.183Z,13.43
2018-12-14T03:04:15.618Z,10.50
2018-12-14T03:06:44.071Z,12.60
2018-12-14T03:09:12.490Z,14.43
2018-12-14T03:11:40.944Z,12.50
2018-12-14T03:14:09.317Z,13.40
2018-12-14T03:16:37.718Z,12.60
2018-12-14T03:19:06.128Z,13.17
2018-12-14T03:21:34.887Z,14.20
2018-12-14T03:24:03.306Z,13.37
2018-12-14T03:26:31.684Z,15.27
2018-12-14T03:29:00.029Z,13.50
2018-12-14T03:31:28.465Z,14.03
2018-12-14T03:33:56.944Z,14.63
2018-12-14T03:36:25.528Z,12.30
2018-12-14T03:38:53.953Z,14.40
2018-12-14T03:41:22.326Z,15.70
2018-12-14T03:43:50.799Z,14.17
2018-12-14T03:46:19.482Z,15.20
2018-12-14T03:48:47.858Z,13.53
2018-12-14T03:51:18.207Z,14.33
2018-12-14T03:53:46.600Z,12.30
2018-12-14T03:56:15.019Z,15.13
2018-12-14T03:58:43.726Z,16.33
2018-12-14T04:01:12.138Z,15.40
2018-12-14T04:03:40.793Z,14.10
2018-12-14T04:06:09.216Z,16.10
2018-12-14T04:08:37.692Z,16.00
2018-12-14T04:11:06.127Z,15.33
2018-12-14T04:13:34.573Z,15.60
2018-12-14T04:16:03.023Z,16.93
2018-12-14T04:18:31.576Z,15.37
2018-12-14T04:21:00.198Z,14.70
2018-12-14T04:23:28.777Z,16.07
2018-12-14T04:25:57.476Z,16.50
2018-12-14T04:28:25.967Z,16.30
2018-12-14T04:30:54.506Z,16.27
2018-12-14T04:33:23.143Z,13.77
2018-12-14T04:35:51.780Z,14.57
2018-12-14T04:38:20.236Z,15.90
2018-12-14T04:40:48.711Z,16.73
2018-12-14T04:43:17.288Z,17.67
2018-12-14T04:45:45.760Z,16.43
2018-12-14T04:48:14.231Z,16.90
2018-12-14T04:50:42.626Z,17.03
2018-12-14T04:53:11.249Z,17.27
2018-12-14T04:55:40.005Z,18.93
2018-12-14T04:58:08.803Z,16.27
2018-12-14T05:00:37.424Z,14.90
2018-12-14T05:03:06.441Z,18.00
2018-12-14T05:05:35.162Z,16.20
2018-12-14T05:08:03.746Z,15.03
2018-12-14T05:10:32.378Z,16.17
2018-12-14T05:13:01.039Z,16.97
2018-12-14T05:15:29.486Z,17.00
2018-12-14T05:17:58.197Z,19.80
2018-12-14T05:20:26.785Z,20.60
2018-12-14T05:22:56.280Z,17.60
2018-12-14T05:25:24.746Z,19.40
2018-12-14T05:27:53.286Z,16.30
2018-12-14T05:30:22.323Z,18.30
2018-12-14T05:32:51.035Z,20.40
2018-12-14T05:35:19.522Z,17.37
2018-12-14T05:37:47.942Z,18.33
2018-12-14T05:40:16.394Z,17.93
2018-12-14T05:42:44.927Z,18.83
2018-12-14T05:45:13.411Z,19.20
2018-12-14T05:47:41.816Z,18.97
2018-12-14T05:50:10.207Z,18.43
2018-12-14T05:52:38.754Z,21.40
2018-12-14T05:55:07.485Z,20.80
2018-12-14T05:57:36.238Z,18.87
2018-12-14T06:00:08.338Z,20.50
2018-12-14T06:02:36.853Z,18.10
2018-12-14T06:05:05.470Z,19.87
2018-12-14T06:07:33.952Z,19.23
2018-12-14T06:10:02.407Z,20.50
2018-12-14T06:12:31.303Z,19.87
2018-12-14T06:14:59.784Z,22.80
2018-12-14T06:17:28.348Z,21.23
2018-12-14T06:19:57.180Z,22.10
2018-12-14T06:22:25.897Z,21.17
2018-12-14T06:24:54.434Z,18.53
2018-12-14T06:27:22.926Z,20.83
2018-12-14T06:29:51.329Z,18.70
2018-12-14T06:32:19.778Z,21.40
2018-12-14T06:34:48.166Z,18.93
2018-12-14T06:37:16.954Z,19.50
2018-12-14T06:39:45.587Z,18.40
2018-12-14T06:42:14.653Z,19.87
2018-12-14T06:44:43.059Z,18.87
2018-12-14T06:47:11.707Z,19.10
2018-12-14T06:49:40.234Z,17.93
2018-12-14T06:52:08.654Z,17.90
2018-12-14T06:54:38.672Z,20.53
2018-12-14T06:57:07.192Z,19.37
2018-12-14T06:59:35.629Z,19.50
2018-12-14T07:02:04.206Z,19.97
2018-12-14T07:04:32.680Z,19.20
2018-12-14T07:07:04.052Z,18.47
2018-12-14T07:09:31.570Z,20.33
2018-12-14T07:11:59.941Z,19.70
2018-12-14T07:14:28.373Z,19.10
2018-12-14T07:16:56.998Z,19.90
2018-12-14T07:19:25.790Z,18.90
2018-12-14T07:21:54.451Z,19.03
2018-12-14T07:24:22.977Z,20.50
2018-12-14T07:26:51.654Z,19.63
2018-12-14T07:29:20.113Z,18.17
2018-12-14T07:31:48.819Z,20.03
2018-12-14T07:34:17.414Z,20.30
2018-12-14T07:36:45.875Z,20.97
2018-12-14T07:39:14.586Z,19.93
2018-12-14T07:41:42.996Z,19.77
2018-12-14T07:44:11.414Z,19.20
2018-12-14T07:46:39.821Z,19.10
2018-12-14T07:49:08.256Z,19.97
2018-12-14T07:51:36.649Z,20.70
2018-12-14T07:54:05.102Z,20.87
2018-12-14T07:56:33.769Z,20.67
2018-12-14T07:59:02.324Z,20.30
2018-12-14T08:01:30.960Z,18.67
2018-12-14T08:04:00.084Z,19.93
2018-12-14T08:06:29.407Z,19.23
2018-12-14T08:08:57.867Z,21.23
2018-12-14T08:11:27.172Z,19.43
2018-12-14T08:13:55.575Z,17.83
2018-12-14T08:16:24.065Z,22.40
2018-12-14T08:18:53.046Z,19.30
2018-12-14T08:21:21.587Z,18.90
2018-12-14T08:23:50.139Z,19.30
2018-12-14T08:26:18.893Z,19.27
2018-12-14T08:28:47.818Z,23.07
2018-12-14T08:31:16.247Z,21.20
2018-12-14T08:33:44.894Z,20.40
2018-12-14T08:36:13.376Z,20.80
2018-12-14T08:38:41.829Z,21.80
2018-12-14T08:41:10.316Z,21.77
2018-12-14T08:43:41.677Z,20.63
2018-12-14T08:46:09.340Z,21.33
2018-12-14T08:48:37.776Z,20.60
2018-12-14T08:51:06.887Z,20.93
2018-12-14T08:53:35.709Z,19.63
2018-12-14T08:56:04.352Z,21.07
2018-12-14T08:58:33.028Z,19.47
2018-12-14T09:01:01.603Z,20.10
2018-12-14T09:03:29.989Z,23.80
2018-12-14T09:05:58.583Z,18.40
2018-12-14T09:08:27.042Z,20.60
2018-12-14T09:10:55.780Z,19.27
2018-12-14T09:13:24.291Z,21.77
2018-12-14T09:15:52.809Z,19.13
2018-12-14T09:18:21.219Z,17.90
2018-12-14T09:20:49.657Z,18.30
2018-12-14T09:23:18.102Z,19.70
2018-12-14T09:25:46.551Z,17.93
2018-12-14T09:28:14.853Z,18.63
2018-12-14T09:30:43.403Z,20.87
2018-12-14T09:33:11.886Z,17.27
2018-12-14T09:35:40.254Z,16.10
2018-12-14T09:38:08.906Z,19.03
2018-12-14T09:40:37.385Z,18.00
2018-12-14T09:43:05.844Z,17.87
2018-12-14T09:45:34.493Z,15.80
2018-12-14T09:48:04.304Z,17.80
2018-12-14T09:50:33.010Z,18.23
2018-12-14T09:53:01.856Z,15.70
2018-12-14T09:55:30.671Z,17.67
2018-12-14T09:57:59.499Z,17.87
2018-12-14T10:00:27.903Z,16.33
2018-12-14T10:02:56.309Z,15.00
2018-12-14T10:05:24.888Z,17.07
2018-12-14T10:07:53.681Z,16.03
2018-12-14T10:10:22.437Z,15.80
2018-12-14T10:12:51.870Z,14.50
2018-12-14T10:15:20.711Z,15.60
2018-12-14T10:17:49.248Z,16.37
2018-12-14T10:20:17.772Z,14.80
2018-12-14T10:22:46.316Z,16.50
2018-12-14T10:25:15.186Z,14.93
2018-12-14T10:27:44.745Z,15.13
2018-12-14T10:30:15.700Z,12.97
2018-12-14T10:32:44.294Z,15.60
2018-12-14T10:35:13.449Z,15.23
2018-12-14T10:37:43.548Z,14.33
2018-12-14T10:40:12.257Z,14.70
2018-12-14T10:42:40.778Z,13.33
2018-12-14T10:45:09.392Z,12.03
2018-12-14T10:47:38.004Z,11.17
2018-12-14T10:50:08.038Z,11.50
2018-12-14T10:52:36.437Z,11.97
2018-12-14T10:55:05.828Z,13.97
2018-12-14T10:57:34.767Z,11.20
2018-12-14T11:00:07.403Z,11.00
2018-12-14T11:02:36.011Z,12.80
2018-12-14T11:05:05.317Z,12.77
2018-12-14T11:07:34.065Z,9.90
2018-12-14T11:10:02.540Z,11.13
2018-12-14T11:12:30.975Z,10.50
2018-12-14T11:14:59.384Z,10.70
2018-12-14T11:17:27.997Z,11.03
2018-12-14T11:19:56.436Z,18.50
2018-12-14T11:22:24.948Z,12.03
2018-12-14T11:24:54.266Z,10.27
2018-12-14T11:27:22.931Z,11.27
2018-12-14T11:29:51.640Z,9.33
2018-12-14T11:32:20.439Z,8.67
2018-12-14T11:34:48.889Z,8.93
2018-12-14T11:37:17.230Z,9.80
2018-12-14T11:39:46.086Z,8.77
2018-12-14T11:42:14.653Z,9.93
2018-12-14T11:44:43.156Z,11.10
2018-12-14T11:47:17.952Z,9.60
2018-12-14T11:49:42.203Z,9.10
2018-12-14T11:52:11.784Z,10.00
2018-12-14T11:54:40.572Z,11.50
2018-12-14T11:57:09.140Z,8.70
2018-12-14T11:59:37.529Z,8.53
2018-12-14T12:02:06.210Z,10.47
2018-12-14T12:04:34.910Z,9.70
2018-12-14T12:07:03.634Z,9.30
2018-12-14T12:09:33.438Z,8.57
2018-12-14T12:12:02.313Z,9.30
2018-12-14T12:14:30.861Z,7.90
2018-12-14T12:16:59.359Z,7.97
2018-12-14T12:19:28.047Z,11.00
2018-12-14T12:21:56.696Z,8.27
2018-12-14T12:24:25.355Z,8.20
2018-12-14T12:26:53.946Z,9.60
2018-12-14T12:29:22.598Z,20.90
2018-12-14T12:31:51.306Z,41.57
2018-12-14T12:34:19.670Z,29.13
2018-12-14T12:36:48.159Z,18.50
2018-12-14T12:39:16.540Z,27.30
2018-12-14T12:41:45.406Z,24.03
2018-12-14T12:44:14.245Z,17.80
2018-12-14T12:46:43.458Z,24.73
2018-12-14T12:49:12.071Z,15.93
2018-12-14T12:51:40.774Z,18.27
2018-12-14T12:54:09.136Z,9.07
2018-12-14T12:56:37.588Z,11.50
2018-12-14T12:59:06.212Z,11.53
2018-12-14T13:01:34.714Z,10.70
2018-12-14T13:04:03.183Z,12.57
2018-12-14T13:06:31.693Z,9.17
2018-12-14T13:09:00.091Z,12.00
2018-12-14T13:11:28.480Z,13.23
2018-12-14T13:13:56.968Z,9.57
2018-12-14T13:16:25.567Z,9.67
2018-12-14T13:18:53.980Z,10.80
2018-12-14T13:21:22.750Z,9.13
2018-12-14T13:23:51.317Z,9.00
2018-12-14T13:26:19.832Z,8.77
2018-12-14T13:28:48.291Z,9.60
2018-12-14T13:31:16.970Z,10.20
2018-12-14T13:33:45.568Z,10.00
2018-12-14T13:36:14.365Z,10.10
2018-12-14T13:38:43.491Z,10.70
2018-12-14T13:41:12.853Z,12.50
2018-12-14T13:43:41.288Z,9.00
2018-12-14T13:46:09.829Z,9.13
2018-12-14T13:48:38.266Z,8.97
2018-12-14T13:51:06.702Z,10.37
2018-12-14T13:53:35.272Z,9.70
2018-12-14T13:56:03.801Z,9.53
2018-12-14T13:58:32.349Z,11.93
2018-12-14T14:01:01.029Z,11.93
2018-12-14T14:03:29.799Z,10.50
2018-12-14T14:05:58.771Z,6.87
2018-12-14T14:08:27.541Z,11.20
2018-12-14T14:10:56.659Z,8.20
2018-12-14T14:13:25.341Z,13.47
2018-12-14T14:15:54.069Z,8.90
2018-12-14T14:18:22.571Z,9.40
2018-12-14T14:20:51.003Z,8.33
2018-12-14T14:23:19.378Z,7.83
2018-12-14T14:25:47.911Z,8.73
2018-12-14T14:28:16.460Z,13.13
2018-12-14T14:30:45.007Z,11.53
2018-12-14T14:33:13.407Z,8.13
2018-12-14T14:35:41.824Z,9.53
2018-12-14T14:38:10.252Z,9.10
2018-12-14T14:40:38.724Z,10.73
2018-12-14T14:43:07.097Z,9.80
2018-12-14T14:45:35.544Z,10.73
2018-12-14T14:48:03.935Z,9.60
2018-12-14T14:50:32.439Z,14.60
2018-12-14T14:53:01.239Z,10.33
2018-12-14T14:55:29.706Z,10.40
2018-12-14T14:57:58.414Z,12.13
2018-12-14T15:00:28.760Z,12.30
2018-12-14T15:02:57.187Z,12.23
2018-12-14T15:05:25.678Z,14.17
2018-12-14T15:07:54.147Z,13.60
2018-12-14T15:10:22.657Z,12.80
2018-12-14T15:12:51.055Z,12.63
2018-12-14T15:15:19.473Z,13.33
2018-12-14T15:17:47.868Z,12.63
2018-12-14T15:20:16.340Z,13.87
2018-12-14T15:22:44.857Z,17.87
2018-12-14T15:25:13.463Z,15.33
2018-12-14T15:27:41.991Z,13.17
2018-12-14T15:30:10.666Z,14.80
2018-12-14T15:32:39.604Z,18.23
2018-12-14T15:35:08.449Z,14.70
2018-12-14T15:37:37.713Z,18.13
2018-12-14T15:40:08.127Z,15.43
2018-12-14T15:42:36.546Z,17.80
2018-12-14T15:45:05.483Z,17.90
2018-12-14T15:47:33.882Z,17.83
2018-12-14T15:50:02.290Z,18.77
2018-12-14T15:52:30.777Z,18.07
2018-12-14T15:54:59.404Z,19.77
2018-12-14T15:57:27.758Z,21.00
2018-12-14T15:59:56.180Z,18.40
2018-12-14T16:02:24.696Z,17.63
2018-12-14T16:04:53.106Z,19.70
2018-12-14T16:07:21.527Z,20.17
2018-12-14T16:09:50.740Z,23.20
2018-12-14T16:12:19.161Z,23.90
2018-12-14T16:14:47.640Z,20.97
2018-12-14T16:17:16.064Z,20.10
2018-12-14T16:19:44.585Z,20.27
2018-12-14T16:22:13.037Z,22.73
2018-12-14T16:24:41.587Z,22.60
2018-12-14T16:27:10.197Z,20.60
2018-12-14T16:29:38.613Z,25.00
2018-12-14T16:32:07.115Z,20.67
2018-12-14T16:34:35.714Z,22.30
2018-12-14T16:37:04.165Z,22.07
2018-12-14T16:39:32.896Z,20.83
2018-12-14T16:42:01.307Z,22.97
2018-12-14T16:44:29.663Z,21.13
2018-12-14T16:46:58.059Z,23.27
2018-12-14T16:49:26.576Z,21.70
2018-12-14T16:51:55.036Z,21.70
2018-12-14T16:54:23.549Z,22.40
2018-12-14T16:56:52.020Z,23.90
2018-12-14T16:59:20.573Z,20.97
2018-12-14T17:01:49.178Z,21.80
2018-12-14T17:04:17.902Z,21.83
2018-12-14T17:06:46.344Z,24.00
2018-12-14T17:09:14.871Z,22.50
2018-12-14T17:11:43.426Z,22.43
2018-12-14T17:14:11.856Z,24.00
2018-12-14T17:16:40.328Z,19.83
2018-12-14T17:19:08.969Z,18.47
2018-12-14T17:21:37.483Z,18.83
2018-12-14T17:24:06.032Z,21.63
2018-12-14T17:26:34.476Z,20.47
2018-12-14T17:29:02.900Z,21.60
2018-12-14T17:31:31.369Z,21.17
2018-12-14T17:33:59.852Z,19.60
2018-12-14T17:36:28.345Z,22.37
2018-12-14T17:38:56.763Z,23.73
2018-12-14T17:41:25.357Z,22.43
2018-12-14T17:43:53.864Z,24.30
2018-12-14T17:46:22.314Z,22.00
2018-12-14T17:48:50.803Z,22.30
2018-12-14T17:51:19.172Z,23.60
2018-12-14T17:53:47.616Z,25.17
2018-12-14T17:56:16.080Z,23.10
2018-12-14T17:58:44.481Z,25.63
2018-12-14T18:01:13.172Z,25.43
2018-12-14T18:03:41.841Z,24.80
2018-12-14T18:06:10.536Z,26.03
2018-12-14T18:08:39.209Z,26.50
2018-12-14T18:11:07.670Z,24.60
2018-12-14T18:13:36.162Z,22.13
2018-12-14T18:16:04.596Z,25.53
2018-12-14T18:18:33.125Z,28.70
2018-12-14T18:21:01.566Z,25.83
2018-12-14T18:23:29.978Z,23.37
2018-12-14T18:25:58.458Z,23.63
2018-12-14T18:28:26.934Z,27.90
2018-12-14T18:30:55.374Z,21.87
2018-12-14T18:33:23.784Z,25.00
2018-12-14T18:35:52.286Z,24.40
2018-12-14T18:38:20.769Z,23.50
2018-12-14T18:40:49.374Z,25.80
2018-12-14T18:43:17.821Z,24.10
2018-12-14T18:45:52.943Z,23.80
2018-12-14T18:48:17.099Z,22.60
2018-12-14T18:50:45.635Z,22.97
2018-12-14T18:53:14.307Z,24.60
2018-12-14T18:55:42.709Z,23.97
2018-12-14T18:58:11.167Z,21.10
2018-12-14T19:00:39.702Z,25.33
2018-12-14T19:03:08.140Z,23.27
2018-12-14T19:05:36.609Z,22.90
2018-12-14T19:08:05.055Z,22.17
2018-12-14T19:10:33.499Z,24.90
2018-12-14T19:13:02.191Z,21.93
2018-12-14T19:15:30.627Z,22.87
2018-12-14T19:17:59.018Z,24.00
2018-12-14T19:20:27.474Z,22.87
2018-12-14T19:22:55.980Z,24.83
2018-12-14T19:25:24.465Z,26.50
2018-12-14T19:27:53.096Z,26.40
2018-12-14T19:30:21.521Z,22.73
2018-12-14T19:32:49.890Z,24.70
2018-12-14T19:35:18.772Z,25.93
2018-12-14T19:37:47.207Z,26.57
2018-12-14T19:40:15.659Z,27.67
2018-12-14T19:42:45.048Z,23.40
2018-12-14T19:45:13.542Z,25.17
2018-12-14T19:47:42.251Z,23.70
2018-12-14T19:50:10.600Z,23.70
2018-12-14T19:52:39.006Z,23.37
2018-12-14T19:55:08.599Z,24.30
2018-12-14T19:57:36.997Z,25.63
2018-12-14T20:00:10.698Z,23.50
2018-12-14T20:02:39.495Z,24.13
2018-12-14T20:05:08.295Z,24.03
2018-12-14T20:07:37.882Z,24.87
2018-12-14T20:10:07.227Z,27.70
2018-12-14T20:12:35.695Z,25.07
2018-12-14T20:15:06.168Z,23.73
2018-12-14T20:17:35.069Z,25.47
2018-12-14T20:20:05.070Z,23.37
2018-12-14T20:22:33.585Z,25.03
2018-12-14T20:25:02.055Z,23.67
2018-12-14T20:27:30.704Z,25.00
2018-12-14T20:29:59.198Z,22.67
2018-12-14T20:32:27.594Z,24.40
2018-12-14T20:34:56.531Z,23.93
2018-12-14T20:37:25.112Z,24.60
2018-12-14T20:39:53.559Z,26.30
2018-12-14T20:42:22.205Z,26.40
2018-12-14T20:44:51.118Z,24.47
2018-12-14T20:47:20.090Z,25.43
2018-12-14T20:49:48.727Z,24.93
2018-12-14T20:52:17.394Z,24.80
2018-12-14T20:54:45.837Z,25.30
2018-12-14T20:57:14.521Z,24.47
2018-12-14T20:59:42.942Z,26.10
2018-12-14T21:02:11.404Z,24.97
2018-12-14T21:04:40.003Z,22.20
2018-12-14T21:07:08.483Z,22.13
2018-12-14T21:09:36.905Z,22.83
2018-12-14T21:12:05.329Z,23.63
2018-12-14T21:14:34.816Z,26.23
2018-12-14T21:17:03.419Z,22.83
2018-12-14T21:19:32.124Z,22.37
2018-12-14T21:22:00.599Z,22.53
2018-12-14T21:24:29.051Z,22.40
2018-12-14T21:26:57.510Z,23.97
2018-12-14T21:29:26.036Z,20.87
2018-12-14T21:31:54.735Z,23.80
2018-12-14T21:34:23.163Z,19.43
2018-12-14T21:36:51.665Z,16.93
2018-12-14T21:39:20.289Z,18.17
2018-12-14T21:41:49.827Z,17.33
2018-12-14T21:44:21.039Z,18.57
2018-12-14T21:46:53.168Z,17.23
2018-12-14T21:49:22.027Z,16.23
2018-12-14T21:51:50.747Z,16.33
2018-12-14T21:54:19.540Z,17.33
2018-12-14T21:56:48.083Z,19.17
2018-12-14T21:59:16.805Z,17.03
2018-12-14T22:01:45.384Z,19.60
2018-12-14T22:04:13.870Z,17.43
2018-12-14T22:06:42.262Z,16.50
2018-12-14T22:09:11.092Z,16.93
2018-12-14T22:11:39.647Z,15.20
2018-12-14T22:14:08.236Z,15.93
2018-12-14T22:16:39.376Z,18.17
2018-12-14T22:19:07.310Z,17.67
2018-12-14T22:21:35.976Z,15.67
2018-12-14T22:24:04.531Z,18.53
2018-12-14T22:26:33.363Z,14.77
2018-12-14T22:29:01.804Z,15.03
2018-12-14T22:31:30.247Z,16.90
2018-12-14T22:34:00.092Z,16.37
2018-12-14T22:36:29.991Z,16.00
2018-12-14T22:38:59.182Z,14.97
2018-12-14T22:41:28.794Z,15.30
2018-12-14T22:43:57.195Z,14.93
2018-12-14T22:46:25.697Z,14.07
2018-12-14T22:48:54.117Z,15.80
2018-12-14T22:51:22.967Z,12.17
2018-12-14T22:53:55.116Z,14.07
2018-12-14T22:56:24.052Z,13.77
2018-12-14T22:58:52.594Z,14.60
2018-12-14T23:01:21.660Z,14.27
2018-12-14T23:03:51.081Z,13.90
2018-12-14T23:06:20.032Z,14.90
2018-12-14T23:08:48.851Z,12.23
2018-12-14T23:11:18.986Z,12.17
2018-12-14T23:13:49.075Z,14.30
2018-12-14T23:16:18.536Z,13.73
2018-12-14T23:18:47.642Z,16.23
2018-12-14T23:21:17.143Z,13.60
2018-12-14T23:23:46.976Z,15.87
2018-12-14T23:26:16.463Z,13.60
2018-12-14T23:28:45.820Z,14.03
2018-12-14T23:31:15.161Z,12.83
2018-12-14T23:33:44.306Z,13.53
2018-12-14T23:36:13.458Z,13.70
2018-12-14T23:38:42.288Z,13.80
2018-12-14T23:41:10.731Z,13.80
2018-12-14T23:43:39.173Z,12.50
2018-12-14T23:46:07.579Z,12.50
2018-12-14T23:48:36.731Z,13.70
2018-12-14T23:51:06.286Z,11.10
2018-12-14T23:53:35.800Z,12.00
2018-12-14T23:56:04.688Z,12.50
2018-12-14T23:58:48.940Z,13.10
